sensor_id;sensor_type;location;lat;lon;timestamp;temperature;humidity
80695;DHT22;70059;42.702;23.312;2023-11-21T00:01:19;6.90;68.00
80695;DHT22;70059;42.702;23.312;2023-11-21T00:03:44;6.90;68.10
80695;DHT22;70059;42.702;23.312;2023-11-21T00:06:10;6.80;68.30
80695;DHT22;70059;42.702;23.312;2023-11-21T00:08:36;6.90;68.40
80695;DHT22;70059;42.702;23.312;2023-11-21T00:11:02;7.00;68.10
80695;DHT22;70059;42.702;23.312;2023-11-21T00:13:31;7.00;68.10
80695;DHT22;70059;42.702;23.312;2023-11-21T00:15:57;7.00;67.90
80695;DHT22;70059;42.702;23.312;2023-11-21T00:18:22;7.00;67.80
80695;DHT22;70059;42.702;23.312;2023-11-21T00:20:48;6.90;67.70
80695;DHT22;70059;42.702;23.312;2023-11-21T00:23:13;7.00;67.50
80695;DHT22;70059;42.702;23.312;2023-11-21T00:25:39;6.90;67.60
80695;DHT22;70059;42.702;23.312;2023-11-21T00:28:05;6.90;67.90
80695;DHT22;70059;42.702;23.312;2023-11-21T00:30:31;7.00;67.70
80695;DHT22;70059;42.702;23.312;2023-11-21T00:32:57;7.00;67.60
80695;DHT22;70059;42.702;23.312;2023-11-21T00:35:23;7.00;67.90
80695;DHT22;70059;42.702;23.312;2023-11-21T00:37:49;7.10;67.40
80695;DHT22;70059;42.702;23.312;2023-11-21T00:40:15;7.00;67.30
80695;DHT22;70059;42.702;23.312;2023-11-21T00:42:41;7.00;67.70
80695;DHT22;70059;42.702;23.312;2023-11-21T00:45:08;7.00;67.80
80695;DHT22;70059;42.702;23.312;2023-11-21T00:47:33;7.00;67.80
80695;DHT22;70059;42.702;23.312;2023-11-21T00:49:59;7.00;67.70
80695;DHT22;70059;42.702;23.312;2023-11-21T00:52:25;7.10;67.40
80695;DHT22;70059;42.702;23.312;2023-11-21T00:54:50;7.00;67.30
80695;DHT22;70059;42.702;23.312;2023-11-21T00:57:16;7.00;67.40
80695;DHT22;70059;42.702;23.312;2023-11-21T00:59:42;6.90;67.90
80695;DHT22;70059;42.702;23.312;2023-11-21T01:02:07;6.80;67.90
80695;DHT22;70059;42.702;23.312;2023-11-21T01:04:36;6.70;68.30
80695;DHT22;70059;42.702;23.312;2023-11-21T01:07:01;6.70;68.60
80695;DHT22;70059;42.702;23.312;2023-11-21T01:09:27;6.60;68.60
80695;DHT22;70059;42.702;23.312;2023-11-21T01:11:53;6.60;68.60
80695;DHT22;70059;42.702;23.312;2023-11-21T01:14:19;6.60;68.60
80695;DHT22;70059;42.702;23.312;2023-11-21T01:16:45;6.60;68.70
80695;DHT22;70059;42.702;23.312;2023-11-21T01:19:11;6.60;68.90
80695;DHT22;70059;42.702;23.312;2023-11-21T01:21:36;6.50;69.00
80695;DHT22;70059;42.702;23.312;2023-11-21T01:24:03;6.50;69.00
80695;DHT22;70059;42.702;23.312;2023-11-21T01:26:29;6.50;69.10
80695;DHT22;70059;42.702;23.312;2023-11-21T01:28:54;6.40;69.10
80695;DHT22;70059;42.702;23.312;2023-11-21T01:31:20;6.40;68.80
80695;DHT22;70059;42.702;23.312;2023-11-21T01:33:46;6.40;68.80
80695;DHT22;70059;42.702;23.312;2023-11-21T01:36:12;6.30;68.90
80695;DHT22;70059;42.702;23.312;2023-11-21T01:38:37;6.30;69.40
80695;DHT22;70059;42.702;23.312;2023-11-21T01:41:03;6.20;70.20
80695;DHT22;70059;42.702;23.312;2023-11-21T01:43:30;6.20;70.20
80695;DHT22;70059;42.702;23.312;2023-11-21T01:45:57;6.00;70.00
80695;DHT22;70059;42.702;23.312;2023-11-21T01:48:24;6.00;70.90
80695;DHT22;70059;42.702;23.312;2023-11-21T01:50:50;6.10;70.70
80695;DHT22;70059;42.702;23.312;2023-11-21T01:53:16;6.20;70.10
80695;DHT22;70059;42.702;23.312;2023-11-21T01:55:45;6.10;70.20
80695;DHT22;70059;42.702;23.312;2023-11-21T01:58:10;6.00;70.40
80695;DHT22;70059;42.702;23.312;2023-11-21T02:00:38;5.80;70.80
80695;DHT22;70059;42.702;23.312;2023-11-21T02:03:04;5.80;71.20
80695;DHT22;70059;42.702;23.312;2023-11-21T02:05:31;5.80;71.30
80695;DHT22;70059;42.702;23.312;2023-11-21T02:07:57;5.80;70.80
80695;DHT22;70059;42.702;23.312;2023-11-21T02:10:22;5.80;70.90
80695;DHT22;70059;42.702;23.312;2023-11-21T02:12:49;5.80;71.00
80695;DHT22;70059;42.702;23.312;2023-11-21T02:15:18;5.90;70.80
80695;DHT22;70059;42.702;23.312;2023-11-21T02:17:49;6.00;70.60
80695;DHT22;70059;42.702;23.312;2023-11-21T02:20:22;6.00;70.20
80695;DHT22;70059;42.702;23.312;2023-11-21T02:22:51;6.00;69.90
80695;DHT22;70059;42.702;23.312;2023-11-21T02:25:30;6.10;69.70
80695;DHT22;70059;42.702;23.312;2023-11-21T02:27:58;6.10;70.70
80695;DHT22;70059;42.702;23.312;2023-11-21T02:30:24;6.10;71.40
80695;DHT22;70059;42.702;23.312;2023-11-21T02:33:01;6.10;72.00
80695;DHT22;70059;42.702;23.312;2023-11-21T02:35:27;6.10;72.30
80695;DHT22;70059;42.702;23.312;2023-11-21T02:37:53;6.10;70.80
80695;DHT22;70059;42.702;23.312;2023-11-21T02:40:19;6.00;70.50
80695;DHT22;70059;42.702;23.312;2023-11-21T02:42:50;6.00;70.30
80695;DHT22;70059;42.702;23.312;2023-11-21T02:45:21;5.90;70.70
80695;DHT22;70059;42.702;23.312;2023-11-21T02:47:48;5.90;71.00
80695;DHT22;70059;42.702;23.312;2023-11-21T02:50:18;5.80;70.80
80695;DHT22;70059;42.702;23.312;2023-11-21T02:52:44;5.70;71.40
80695;DHT22;70059;42.702;23.312;2023-11-21T02:55:10;5.80;71.80
80695;DHT22;70059;42.702;23.312;2023-11-21T02:57:36;5.80;71.80
80695;DHT22;70059;42.702;23.312;2023-11-21T03:00:02;5.80;71.40
80695;DHT22;70059;42.702;23.312;2023-11-21T03:02:28;5.80;71.90
80695;DHT22;70059;42.702;23.312;2023-11-21T03:04:53;5.80;71.50
80695;DHT22;70059;42.702;23.312;2023-11-21T03:07:19;5.80;72.20
80695;DHT22;70059;42.702;23.312;2023-11-21T03:09:45;5.80;72.30
80695;DHT22;70059;42.702;23.312;2023-11-21T03:12:11;5.80;71.90
80695;DHT22;70059;42.702;23.312;2023-11-21T03:14:41;5.80;71.80
80695;DHT22;70059;42.702;23.312;2023-11-21T03:17:07;5.80;71.40
80695;DHT22;70059;42.702;23.312;2023-11-21T03:19:33;5.70;71.80
80695;DHT22;70059;42.702;23.312;2023-11-21T03:21:58;5.70;71.80
80695;DHT22;70059;42.702;23.312;2023-11-21T03:24:25;5.80;71.40
80695;DHT22;70059;42.702;23.312;2023-11-21T03:26:54;5.80;72.80
80695;DHT22;70059;42.702;23.312;2023-11-21T03:29:20;5.80;71.50
80695;DHT22;70059;42.702;23.312;2023-11-21T03:31:46;5.70;71.60
80695;DHT22;70059;42.702;23.312;2023-11-21T03:34:23;5.80;72.10
80695;DHT22;70059;42.702;23.312;2023-11-21T03:36:49;5.80;71.70
80695;DHT22;70059;42.702;23.312;2023-11-21T03:39:14;5.90;72.20
80695;DHT22;70059;42.702;23.312;2023-11-21T03:41:40;5.90;71.60
80695;DHT22;70059;42.702;23.312;2023-11-21T03:44:06;5.90;71.70
80695;DHT22;70059;42.702;23.312;2023-11-21T03:46:31;6.00;71.70
80695;DHT22;70059;42.702;23.312;2023-11-21T03:48:58;5.90;71.30
80695;DHT22;70059;42.702;23.312;2023-11-21T03:51:24;5.90;71.80
80695;DHT22;70059;42.702;23.312;2023-11-21T03:53:50;5.80;71.70
80695;DHT22;70059;42.702;23.312;2023-11-21T03:56:15;5.90;71.80
80695;DHT22;70059;42.702;23.312;2023-11-21T03:58:41;5.90;71.40
80695;DHT22;70059;42.702;23.312;2023-11-21T04:01:07;5.90;71.60
80695;DHT22;70059;42.702;23.312;2023-11-21T04:03:32;6.00;71.10
80695;DHT22;70059;42.702;23.312;2023-11-21T04:05:58;5.90;70.90
80695;DHT22;70059;42.702;23.312;2023-11-21T04:08:24;6.00;71.30
80695;DHT22;70059;42.702;23.312;2023-11-21T04:10:50;6.00;70.90
80695;DHT22;70059;42.702;23.312;2023-11-21T04:13:19;5.90;71.50
80695;DHT22;70059;42.702;23.312;2023-11-21T04:15:44;6.00;71.50
80695;DHT22;70059;42.702;23.312;2023-11-21T04:18:10;6.00;71.80
80695;DHT22;70059;42.702;23.312;2023-11-21T04:20:36;6.20;71.20
80695;DHT22;70059;42.702;23.312;2023-11-21T04:23:01;6.10;70.40
80695;DHT22;70059;42.702;23.312;2023-11-21T04:25:28;6.00;70.70
80695;DHT22;70059;42.702;23.312;2023-11-21T04:27:55;5.90;70.90
80695;DHT22;70059;42.702;23.312;2023-11-21T04:30:21;5.90;71.00
80695;DHT22;70059;42.702;23.312;2023-11-21T04:32:47;5.90;70.80
80695;DHT22;70059;42.702;23.312;2023-11-21T04:35:12;5.80;70.60
80695;DHT22;70059;42.702;23.312;2023-11-21T04:37:38;5.10;73.90
80695;DHT22;70059;42.702;23.312;2023-11-21T04:40:04;4.90;75.50
80695;DHT22;70059;42.702;23.312;2023-11-21T04:42:36;4.90;75.50
80695;DHT22;70059;42.702;23.312;2023-11-21T04:47:32;4.70;76.40
80695;DHT22;70059;42.702;23.312;2023-11-21T04:49:57;4.70;75.90
80695;DHT22;70059;42.702;23.312;2023-11-21T04:52:23;4.70;75.90
80695;DHT22;70059;42.702;23.312;2023-11-21T04:54:49;4.70;75.30
80695;DHT22;70059;42.702;23.312;2023-11-21T04:57:15;4.80;75.40
80695;DHT22;70059;42.702;23.312;2023-11-21T04:59:43;4.70;75.50
80695;DHT22;70059;42.702;23.312;2023-11-21T05:02:09;4.70;75.50
80695;DHT22;70059;42.702;23.312;2023-11-21T05:04:34;4.70;75.30
80695;DHT22;70059;42.702;23.312;2023-11-21T05:07:02;4.60;76.00
80695;DHT22;70059;42.702;23.312;2023-11-21T05:09:27;4.70;75.80
80695;DHT22;70059;42.702;23.312;2023-11-21T05:11:57;4.70;76.00
80695;DHT22;70059;42.702;23.312;2023-11-21T05:14:23;4.80;75.50
80695;DHT22;70059;42.702;23.312;2023-11-21T05:16:48;4.80;75.60
80695;DHT22;70059;42.702;23.312;2023-11-21T05:19:17;4.80;76.10
80695;DHT22;70059;42.702;23.312;2023-11-21T05:21:43;4.80;75.40
80695;DHT22;70059;42.702;23.312;2023-11-21T05:24:21;4.90;75.20
80695;DHT22;70059;42.702;23.312;2023-11-21T05:45:07;5.20;74.20
80695;DHT22;70059;42.702;23.312;2023-11-21T05:47:43;5.30;74.00
80695;DHT22;70059;42.702;23.312;2023-11-21T05:50:10;5.30;74.00
80695;DHT22;70059;42.702;23.312;2023-11-21T05:52:47;5.30;73.90
80695;DHT22;70059;42.702;23.312;2023-11-21T05:55:22;5.20;74.40
80695;DHT22;70059;42.702;23.312;2023-11-21T05:57:52;5.20;74.30
80695;DHT22;70059;42.702;23.312;2023-11-21T06:00:18;5.30;74.20
80695;DHT22;70059;42.702;23.312;2023-11-21T06:02:56;5.30;74.20
80695;DHT22;70059;42.702;23.312;2023-11-21T06:06:00;5.40;74.10
80695;DHT22;70059;42.702;23.312;2023-11-21T06:08:32;5.50;74.00
80695;DHT22;70059;42.702;23.312;2023-11-21T06:11:27;5.60;74.00
80695;DHT22;70059;42.702;23.312;2023-11-21T06:14:38;5.70;72.20
80695;DHT22;70059;42.702;23.312;2023-11-21T06:23:45;5.70;72.80
80695;DHT22;70059;42.702;23.312;2023-11-21T06:26:32;5.70;72.40
80695;DHT22;70059;42.702;23.312;2023-11-21T06:29:00;5.90;72.20
80695;DHT22;70059;42.702;23.312;2023-11-21T06:31:26;6.10;69.50
80695;DHT22;70059;42.702;23.312;2023-11-21T06:33:51;6.40;68.60
80695;DHT22;70059;42.702;23.312;2023-11-21T06:36:18;6.40;67.80
80695;DHT22;70059;42.702;23.312;2023-11-21T06:38:46;6.50;67.40
80695;DHT22;70059;42.702;23.312;2023-11-21T06:41:13;6.70;66.80
80695;DHT22;70059;42.702;23.312;2023-11-21T06:43:40;6.70;66.80
80695;DHT22;70059;42.702;23.312;2023-11-21T06:46:10;6.80;65.60
80695;DHT22;70059;42.702;23.312;2023-11-21T06:48:40;7.00;64.90
80695;DHT22;70059;42.702;23.312;2023-11-21T06:51:09;7.10;64.30
80695;DHT22;70059;42.702;23.312;2023-11-21T06:53:36;7.10;64.20
80695;DHT22;70059;42.702;23.312;2023-11-21T06:56:02;7.20;63.60
80695;DHT22;70059;42.702;23.312;2023-11-21T06:58:28;7.30;63.60
80695;DHT22;70059;42.702;23.312;2023-11-21T07:01:01;7.40;63.50
80695;DHT22;70059;42.702;23.312;2023-11-21T07:06:40;7.60;63.00
80695;DHT22;70059;42.702;23.312;2023-11-21T07:11:39;8.10;61.20
80695;DHT22;70059;42.702;23.312;2023-11-21T07:14:20;8.20;61.30
80695;DHT22;70059;42.702;23.312;2023-11-21T07:17:09;8.40;59.60
80695;DHT22;70059;42.702;23.312;2023-11-21T07:19:40;8.40;59.70
80695;DHT22;70059;42.702;23.312;2023-11-21T07:27:10;8.60;58.80
80695;DHT22;70059;42.702;23.312;2023-11-21T07:29:37;8.70;58.60
80695;DHT22;70059;42.702;23.312;2023-11-21T07:32:07;8.80;58.70
80695;DHT22;70059;42.702;23.312;2023-11-21T07:34:37;8.90;58.30
80695;DHT22;70059;42.702;23.312;2023-11-21T07:37:03;9.10;57.90
80695;DHT22;70059;42.702;23.312;2023-11-21T07:39:29;9.20;57.70
80695;DHT22;70059;42.702;23.312;2023-11-21T07:47:34;9.30;58.50
80695;DHT22;70059;42.702;23.312;2023-11-21T07:50:04;9.60;58.30
80695;DHT22;70059;42.702;23.312;2023-11-21T07:52:29;10.00;56.50
80695;DHT22;70059;42.702;23.312;2023-11-21T07:54:55;10.30;55.50
80695;DHT22;70059;42.702;23.312;2023-11-21T07:57:21;10.60;54.30
80695;DHT22;70059;42.702;23.312;2023-11-21T07:59:47;10.90;52.70
80695;DHT22;70059;42.702;23.312;2023-11-21T08:02:16;11.20;51.80
80695;DHT22;70059;42.702;23.312;2023-11-21T08:04:43;11.30;50.70
80695;DHT22;70059;42.702;23.312;2023-11-21T08:07:11;11.40;50.70
80695;DHT22;70059;42.702;23.312;2023-11-21T08:09:42;11.50;50.20
80695;DHT22;70059;42.702;23.312;2023-11-21T08:12:09;11.60;49.50
80695;DHT22;70059;42.702;23.312;2023-11-21T08:15:00;11.30;50.30
80695;DHT22;70059;42.702;23.312;2023-11-21T08:17:29;11.00;51.50
80695;DHT22;70059;42.702;23.312;2023-11-21T08:19:58;10.00;54.40
80695;DHT22;70059;42.702;23.312;2023-11-21T08:25:51;9.60;57.50
80695;DHT22;70059;42.702;23.312;2023-11-21T08:28:16;9.70;56.90
80695;DHT22;70059;42.702;23.312;2023-11-21T08:30:45;9.70;57.10
80695;DHT22;70059;42.702;23.312;2023-11-21T08:33:11;10.00;56.40
80695;DHT22;70059;42.702;23.312;2023-11-21T08:35:37;10.10;55.50
80695;DHT22;70059;42.702;23.312;2023-11-21T08:38:04;10.40;55.00
80695;DHT22;70059;42.702;23.312;2023-11-21T08:40:30;10.60;53.70
80695;DHT22;70059;42.702;23.312;2023-11-21T08:42:57;10.80;53.90
80695;DHT22;70059;42.702;23.312;2023-11-21T08:45:26;11.10;52.50
80695;DHT22;70059;42.702;23.312;2023-11-21T08:47:53;11.20;52.40
80695;DHT22;70059;42.702;23.312;2023-11-21T08:50:20;11.30;52.10
80695;DHT22;70059;42.702;23.312;2023-11-21T08:52:56;11.40;52.00
80695;DHT22;70059;42.702;23.312;2023-11-21T08:55:22;11.30;51.30
80695;DHT22;70059;42.702;23.312;2023-11-21T08:57:49;11.30;51.30
80695;DHT22;70059;42.702;23.312;2023-11-21T09:00:18;11.40;51.00
80695;DHT22;70059;42.702;23.312;2023-11-21T09:02:47;11.70;50.70
80695;DHT22;70059;42.702;23.312;2023-11-21T09:05:29;11.90;49.90
80695;DHT22;70059;42.702;23.312;2023-11-21T09:08:28;12.00;49.40
80695;DHT22;70059;42.702;23.312;2023-11-21T09:10:58;11.90;50.00
80695;DHT22;70059;42.702;23.312;2023-11-21T09:13:23;11.90;49.60
80695;DHT22;70059;42.702;23.312;2023-11-21T09:21:02;11.80;50.20
80695;DHT22;70059;42.702;23.312;2023-11-21T09:23:30;11.70;50.90
80695;DHT22;70059;42.702;23.312;2023-11-21T09:28:39;11.50;50.90
80695;DHT22;70059;42.702;23.312;2023-11-21T10:04:46;15.10;42.10
80695;DHT22;70059;42.702;23.312;2023-11-21T10:07:16;15.50;40.60
80695;DHT22;70059;42.702;23.312;2023-11-21T10:09:57;15.80;40.30
80695;DHT22;70059;42.702;23.312;2023-11-21T10:12:25;16.00;39.40
80695;DHT22;70059;42.702;23.312;2023-11-21T10:17:52;16.50;38.60
80695;DHT22;70059;42.702;23.312;2023-11-21T10:20:23;16.90;37.80
80695;DHT22;70059;42.702;23.312;2023-11-21T10:22:50;17.10;37.30
80695;DHT22;70059;42.702;23.312;2023-11-21T10:33:27;17.10;36.30
80695;DHT22;70059;42.702;23.312;2023-11-21T10:35:57;16.60;37.20
80695;DHT22;70059;42.702;23.312;2023-11-21T10:41:02;16.00;38.70
80695;DHT22;70059;42.702;23.312;2023-11-21T10:43:32;15.60;39.90
80695;DHT22;70059;42.702;23.312;2023-11-21T10:46:08;15.30;40.60
80695;DHT22;70059;42.702;23.312;2023-11-21T10:48:35;15.10;40.70
80695;DHT22;70059;42.702;23.312;2023-11-21T10:51:07;15.10;40.80
80695;DHT22;70059;42.702;23.312;2023-11-21T10:53:33;15.00;41.60
80695;DHT22;70059;42.702;23.312;2023-11-21T10:56:05;14.80;41.10
80695;DHT22;70059;42.702;23.312;2023-11-21T10:58:35;14.50;41.40
80695;DHT22;70059;42.702;23.312;2023-11-21T11:01:06;14.30;42.30
80695;DHT22;70059;42.702;23.312;2023-11-21T11:03:32;14.20;43.50
80695;DHT22;70059;42.702;23.312;2023-11-21T11:06:08;14.00;43.70
80695;DHT22;70059;42.702;23.312;2023-11-21T11:08:48;13.90;43.40
80695;DHT22;70059;42.702;23.312;2023-11-21T11:11:18;13.70;44.00
80695;DHT22;70059;42.702;23.312;2023-11-21T11:14:01;13.60;44.20
80695;DHT22;70059;42.702;23.312;2023-11-21T11:16:53;13.60;44.50
80695;DHT22;70059;42.702;23.312;2023-11-21T11:19:54;13.50;44.90
80695;DHT22;70059;42.702;23.312;2023-11-21T13:16:12;10.80;61.90
80695;DHT22;70059;42.702;23.312;2023-11-21T13:18:40;10.90;62.70
80695;DHT22;70059;42.702;23.312;2023-11-21T13:21:08;10.90;62.80
80695;DHT22;70059;42.702;23.312;2023-11-21T13:23:42;11.10;62.30
80695;DHT22;70059;42.702;23.312;2023-11-21T13:26:10;11.10;61.60
80695;DHT22;70059;42.702;23.312;2023-11-21T13:28:36;11.00;62.00
80695;DHT22;70059;42.702;23.312;2023-11-21T13:31:04;10.90;61.30
80695;DHT22;70059;42.702;23.312;2023-11-21T13:33:47;10.70;60.10
80695;DHT22;70059;42.702;23.312;2023-11-21T13:36:21;10.70;59.90
80695;DHT22;70059;42.702;23.312;2023-11-21T13:38:50;10.80;60.30
80695;DHT22;70059;42.702;23.312;2023-11-21T13:41:15;10.90;59.30
80695;DHT22;70059;42.702;23.312;2023-11-21T13:43:43;10.90;58.90
80695;DHT22;70059;42.702;23.312;2023-11-21T13:46:19;11.00;59.10
80695;DHT22;70059;42.702;23.312;2023-11-21T13:48:48;11.10;59.30
80695;DHT22;70059;42.702;23.312;2023-11-21T13:51:30;11.30;57.70
80695;DHT22;70059;42.702;23.312;2023-11-21T13:54:04;11.30;57.20
80695;DHT22;70059;42.702;23.312;2023-11-21T13:56:37;11.20;57.90
80695;DHT22;70059;42.702;23.312;2023-11-21T13:59:06;11.20;58.90
80695;DHT22;70059;42.702;23.312;2023-11-21T14:01:57;11.30;59.00
80695;DHT22;70059;42.702;23.312;2023-11-21T14:04:55;11.20;59.20
80695;DHT22;70059;42.702;23.312;2023-11-21T14:07:43;11.20;58.70
80695;DHT22;70059;42.702;23.312;2023-11-21T14:10:24;11.20;59.00
80695;DHT22;70059;42.702;23.312;2023-11-21T14:13:05;11.30;58.80
80695;DHT22;70059;42.702;23.312;2023-11-21T14:16:15;11.20;58.60
80695;DHT22;70059;42.702;23.312;2023-11-21T14:18:42;11.20;59.70
80695;DHT22;70059;42.702;23.312;2023-11-21T14:21:21;11.30;60.50
80695;DHT22;70059;42.702;23.312;2023-11-21T14:23:47;11.30;61.20
80695;DHT22;70059;42.702;23.312;2023-11-21T14:26:13;11.30;61.80
80695;DHT22;70059;42.702;23.312;2023-11-21T14:28:43;11.30;62.20
80695;DHT22;70059;42.702;23.312;2023-11-21T14:31:09;11.30;62.10
80695;DHT22;70059;42.702;23.312;2023-11-21T14:33:40;11.30;61.70
80695;DHT22;70059;42.702;23.312;2023-11-21T14:36:07;11.30;63.20
80695;DHT22;70059;42.702;23.312;2023-11-21T14:38:36;11.20;62.60
80695;DHT22;70059;42.702;23.312;2023-11-21T14:41:07;11.20;63.40
80695;DHT22;70059;42.702;23.312;2023-11-21T14:43:45;11.30;62.60
80695;DHT22;70059;42.702;23.312;2023-11-21T14:46:22;11.30;62.40
80695;DHT22;70059;42.702;23.312;2023-11-21T14:48:51;11.30;63.50
80695;DHT22;70059;42.702;23.312;2023-11-21T14:51:41;11.30;63.90
80695;DHT22;70059;42.702;23.312;2023-11-21T14:54:43;11.40;63.10
80695;DHT22;70059;42.702;23.312;2023-11-21T14:57:14;11.50;61.90
80695;DHT22;70059;42.702;23.312;2023-11-21T14:59:49;11.50;61.60
80695;DHT22;70059;42.702;23.312;2023-11-21T15:02:23;11.50;62.00
80695;DHT22;70059;42.702;23.312;2023-11-21T15:05:09;11.40;62.30
80695;DHT22;70059;42.702;23.312;2023-11-21T15:07:40;11.40;62.20
80695;DHT22;70059;42.702;23.312;2023-11-21T15:10:09;11.40;63.40
80695;DHT22;70059;42.702;23.312;2023-11-21T15:12:40;11.40;62.80
80695;DHT22;70059;42.702;23.312;2023-11-21T15:15:06;11.40;62.50
80695;DHT22;70059;42.702;23.312;2023-11-21T15:17:36;11.40;63.20
80695;DHT22;70059;42.702;23.312;2023-11-21T15:20:03;11.40;63.10
80695;DHT22;70059;42.702;23.312;2023-11-21T15:22:33;11.40;62.60
80695;DHT22;70059;42.702;23.312;2023-11-21T15:24:59;11.40;62.50
80695;DHT22;70059;42.702;23.312;2023-11-21T15:27:27;11.30;63.10
80695;DHT22;70059;42.702;23.312;2023-11-21T15:32:28;11.20;64.20
80695;DHT22;70059;42.702;23.312;2023-11-21T15:34:54;11.20;64.40
80695;DHT22;70059;42.702;23.312;2023-11-21T15:37:20;11.30;63.90
80695;DHT22;70059;42.702;23.312;2023-11-21T15:39:46;11.30;64.10
80695;DHT22;70059;42.702;23.312;2023-11-21T15:42:12;11.30;64.00
80695;DHT22;70059;42.702;23.312;2023-11-21T15:44:44;11.20;63.90
80695;DHT22;70059;42.702;23.312;2023-11-21T15:47:10;11.20;64.80
80695;DHT22;70059;42.702;23.312;2023-11-21T15:49:36;11.20;64.50
80695;DHT22;70059;42.702;23.312;2023-11-21T15:52:03;11.20;64.30
80695;DHT22;70059;42.702;23.312;2023-11-21T15:54:31;11.20;65.00
80695;DHT22;70059;42.702;23.312;2023-11-21T15:57:05;11.10;65.50
80695;DHT22;70059;42.702;23.312;2023-11-21T15:59:31;11.00;65.90
80695;DHT22;70059;42.702;23.312;2023-11-21T16:02:03;11.00;66.60
80695;DHT22;70059;42.702;23.312;2023-11-21T16:04:33;10.90;66.00
80695;DHT22;70059;42.702;23.312;2023-11-21T16:06:58;10.90;66.10
80695;DHT22;70059;42.702;23.312;2023-11-21T16:09:29;10.70;66.80
80695;DHT22;70059;42.702;23.312;2023-11-21T16:11:58;10.50;68.00
80695;DHT22;70059;42.702;23.312;2023-11-21T16:14:39;10.50;68.20
80695;DHT22;70059;42.702;23.312;2023-11-21T16:17:10;10.40;68.20
80695;DHT22;70059;42.702;23.312;2023-11-21T16:19:39;10.40;68.70
80695;DHT22;70059;42.702;23.312;2023-11-21T16:22:08;10.30;69.30
80695;DHT22;70059;42.702;23.312;2023-11-21T16:24:34;10.40;69.20
80695;DHT22;70059;42.702;23.312;2023-11-21T16:27:23;10.20;69.20
80695;DHT22;70059;42.702;23.312;2023-11-21T16:29:49;10.30;69.00
80695;DHT22;70059;42.702;23.312;2023-11-21T16:32:15;10.30;69.10
80695;DHT22;70059;42.702;23.312;2023-11-21T16:34:41;10.50;69.00
80695;DHT22;70059;42.702;23.312;2023-11-21T16:37:07;10.60;68.10
80695;DHT22;70059;42.702;23.312;2023-11-21T16:39:33;10.60;67.50
80695;DHT22;70059;42.702;23.312;2023-11-21T16:41:59;10.50;67.90
80695;DHT22;70059;42.702;23.312;2023-11-21T16:44:25;10.50;68.60
80695;DHT22;70059;42.702;23.312;2023-11-21T16:46:52;10.40;68.50
80695;DHT22;70059;42.702;23.312;2023-11-21T16:49:19;10.30;69.20
80695;DHT22;70059;42.702;23.312;2023-11-21T16:51:47;10.40;69.10
80695;DHT22;70059;42.702;23.312;2023-11-21T16:54:14;10.30;69.60
80695;DHT22;70059;42.702;23.312;2023-11-21T16:56:44;10.30;69.90
80695;DHT22;70059;42.702;23.312;2023-11-21T16:59:10;10.10;70.70
80695;DHT22;70059;42.702;23.312;2023-11-21T17:01:36;10.10;70.20
80695;DHT22;70059;42.702;23.312;2023-11-21T17:04:03;10.00;70.30
80695;DHT22;70059;42.702;23.312;2023-11-21T17:06:29;10.00;70.90
80695;DHT22;70059;42.702;23.312;2023-11-21T17:08:57;9.90;71.40
80695;DHT22;70059;42.702;23.312;2023-11-21T17:11:29;10.00;71.20
80695;DHT22;70059;42.702;23.312;2023-11-21T17:13:55;10.00;71.10
80695;DHT22;70059;42.702;23.312;2023-11-21T17:16:21;9.90;71.40
80695;DHT22;70059;42.702;23.312;2023-11-21T17:18:47;10.00;70.90
80695;DHT22;70059;42.702;23.312;2023-11-21T17:21:13;10.00;71.00
80695;DHT22;70059;42.702;23.312;2023-11-21T17:23:40;10.00;71.00
80695;DHT22;70059;42.702;23.312;2023-11-21T17:26:06;9.90;69.60
80695;DHT22;70059;42.702;23.312;2023-11-21T17:28:32;9.90;69.70
80695;DHT22;70059;42.702;23.312;2023-11-21T17:30:57;9.80;70.40
80695;DHT22;70059;42.702;23.312;2023-11-21T17:33:23;9.80;70.00
80695;DHT22;70059;42.702;23.312;2023-11-21T17:35:49;9.80;70.10
80695;DHT22;70059;42.702;23.312;2023-11-21T17:38:14;9.70;69.90
80695;DHT22;70059;42.702;23.312;2023-11-21T17:40:40;9.60;70.00
80695;DHT22;70059;42.702;23.312;2023-11-21T17:43:06;9.50;70.00
80695;DHT22;70059;42.702;23.312;2023-11-21T17:45:32;9.40;70.50
80695;DHT22;70059;42.702;23.312;2023-11-21T17:47:58;9.40;70.60
80695;DHT22;70059;42.702;23.312;2023-11-21T17:50:26;9.40;70.80
80695;DHT22;70059;42.702;23.312;2023-11-21T17:52:51;9.50;70.80
80695;DHT22;70059;42.702;23.312;2023-11-21T17:55:17;9.50;71.00
80695;DHT22;70059;42.702;23.312;2023-11-21T17:57:43;9.40;71.40
80695;DHT22;70059;42.702;23.312;2023-11-21T18:00:12;9.40;71.20
80695;DHT22;70059;42.702;23.312;2023-11-21T18:02:38;9.30;71.40
80695;DHT22;70059;42.702;23.312;2023-11-21T18:05:04;9.30;72.50
80695;DHT22;70059;42.702;23.312;2023-11-21T18:07:37;9.10;72.70
80695;DHT22;70059;42.702;23.312;2023-11-21T18:10:02;9.00;73.40
80695;DHT22;70059;42.702;23.312;2023-11-21T18:12:33;9.00;74.20
80695;DHT22;70059;42.702;23.312;2023-11-21T18:15:00;8.90;75.50
80695;DHT22;70059;42.702;23.312;2023-11-21T18:17:26;8.90;76.20
80695;DHT22;70059;42.702;23.312;2023-11-21T18:19:51;8.90;75.50
80695;DHT22;70059;42.702;23.312;2023-11-21T18:22:23;9.00;76.30
80695;DHT22;70059;42.702;23.312;2023-11-21T18:24:53;9.00;75.50
80695;DHT22;70059;42.702;23.312;2023-11-21T18:27:22;9.10;74.40
80695;DHT22;70059;42.702;23.312;2023-11-21T18:29:59;9.20;74.70
80695;DHT22;70059;42.702;23.312;2023-11-21T18:32:26;9.40;74.10
80695;DHT22;70059;42.702;23.312;2023-11-21T18:34:53;9.50;73.70
80695;DHT22;70059;42.702;23.312;2023-11-21T18:37:19;9.60;72.70
80695;DHT22;70059;42.702;23.312;2023-11-21T18:39:46;9.60;72.30
80695;DHT22;70059;42.702;23.312;2023-11-21T18:42:12;9.50;73.00
80695;DHT22;70059;42.702;23.312;2023-11-21T18:44:44;9.50;73.30
80695;DHT22;70059;42.702;23.312;2023-11-21T18:47:11;9.50;73.00
80695;DHT22;70059;42.702;23.312;2023-11-21T18:49:40;9.70;72.70
80695;DHT22;70059;42.702;23.312;2023-11-21T18:52:06;9.70;72.30
80695;DHT22;70059;42.702;23.312;2023-11-21T18:54:41;9.60;72.50
80695;DHT22;70059;42.702;23.312;2023-11-21T18:57:08;9.60;72.90
80695;DHT22;70059;42.702;23.312;2023-11-21T18:59:34;9.60;73.20
80695;DHT22;70059;42.702;23.312;2023-11-21T19:02:01;9.60;73.20
80695;DHT22;70059;42.702;23.312;2023-11-21T19:04:27;9.60;73.90
80695;DHT22;70059;42.702;23.312;2023-11-21T19:06:53;9.60;73.40
80695;DHT22;70059;42.702;23.312;2023-11-21T19:09:19;9.70;74.30
80695;DHT22;70059;42.702;23.312;2023-11-21T19:11:45;9.80;71.60
80695;DHT22;70059;42.702;23.312;2023-11-21T19:14:13;9.80;71.80
80695;DHT22;70059;42.702;23.312;2023-11-21T19:16:38;9.90;72.50